TimeCET,TemperatureF,Dew PointF,Humidity,Sea Level PressureIn,VisibilityMPH,Wind Direction,Wind SpeedMPH,Gust SpeedMPH,PrecipitationIn,Events,Conditions,WindDirDegrees,DateUTC
12:55 AM,21.2,21.2,100,29.71,-9999.0,SW,16.1,-,N/A,,Clear,230,2012-10-30 23:55:00
1:00 AM,22,21,92,,6,SW,16.1,,,,Partly Cloudy,230,2012-10-31 00:00:00
1:55 AM,21.2,21.2,100,29.71,0.0,South,13.8,-,N/A,Fog,Light Freezing Fog,180,2012-10-31 00:55:00
2:55 AM,23.0,23.0,100,29.71,0.0,South,17.3,-,N/A,Fog,Light Freezing Fog,190,2012-10-31 01:55:00
3:55 AM,23.0,23.0,100,29.71,0.0,SSW,12.7,-,N/A,Fog,Light Freezing Fog,200,2012-10-31 02:55:00
4:00 AM,23,23,100,,0,SSW,12.7,,,Fog,Heavy Fog,200,2012-10-31 03:00:00
4:55 AM,23.0,23.0,100,29.68,0.0,SSW,15.0,-,N/A,Fog,Light Freezing Fog,200,2012-10-31 03:55:00
5:55 AM,24.8,24.8,100,29.71,0.0,SSW,11.5,-,N/A,Fog,Light Freezing Fog,200,2012-10-31 04:55:00
6:55 AM,24.8,24.8,100,29.68,0.0,South,8.1,-,N/A,Fog,Light Freezing Fog,180,2012-10-31 05:55:00
7:00 AM,25,25,100,,0,South,8.1,,,Fog,Heavy Fog,180,2012-10-31 06:00:00
7:55 AM,24.8,24.8,100,29.71,0.0,SSW,12.7,-,N/A,Fog,Light Freezing Fog,200,2012-10-31 06:55:00
8:55 AM,24.8,24.8,100,29.71,0.0,South,9.2,-,N/A,Fog,Light Freezing Fog,190,2012-10-31 07:55:00
9:55 AM,26.6,26.6,100,29.74,0.0,South,9.2,-,N/A,Fog,Light Freezing Fog,170,2012-10-31 08:55:00
10:00 AM,27,27,100,,0,South,9.2,,,Fog,Heavy Fog,170,2012-10-31 09:00:00
10:55 AM,28.4,28.4,100,29.71,0.0,South,6.9,-,N/A,Fog,Light Freezing Fog,170,2012-10-31 09:55:00
11:55 AM,28.4,28.4,100,29.71,0.0,SSW,8.1,-,N/A,Fog,Light Freezing Fog,200,2012-10-31 10:55:00
12:55 PM,28.4,28.4,100,29.68,6.2,SSE,8.1,-,N/A,,Scattered Clouds,150,2012-10-31 11:55:00
1:00 PM,29,28,94,,19,SSE,8.1,,,,Overcast,150,2012-10-31 12:00:00
1:55 PM,30.2,28.4,93,29.68,6.2,SSE,9.2,-,N/A,,Scattered Clouds,150,2012-10-31 12:55:00
2:55 PM,30.2,26.6,86,29.65,6.2,SE,4.6,-,N/A,,Scattered Clouds,130,2012-10-31 13:55:00
3:55 PM,28.4,24.8,86,29.62,0.3,NNE,5.8,-,N/A,Fog-Snow,Light Snow,30,2012-10-31 14:55:00
4:00 PM,29,25,78,,0,NNE,5.8,,,Snow,Light Snow,30,2012-10-31 15:00:00
4:55 PM,26.6,23.0,86,29.59,0.4,NNE,6.9,-,N/A,Fog-Snow,Light Snow,20,2012-10-31 15:55:00
5:55 PM,26.6,24.8,93,29.59,-9999.0,NNE,10.4,-,N/A,Fog,Light Freezing Fog,30,2012-10-31 16:55:00
6:55 PM,28.4,26.6,93,29.56,0.4,ENE,12.7,-,N/A,Fog-Snow,Light Snow,70,2012-10-31 17:55:00
7:00 PM,28,28,97,,0,ENE,12.7,,,Rain,Freezing Rain,70,2012-10-31 18:00:00
7:55 PM,28.4,28.4,100,29.53,0.6,East,16.1,27.6,N/A,Fog-Snow,Light Snow,90,2012-10-31 18:55:00
8:55 PM,30.2,30.2,100,29.50,0.6,East,17.3,32.2,N/A,Fog-Snow,Light Snow,90,2012-10-31 19:55:00
9:55 PM,30.2,30.2,100,29.47,0.5,ESE,20.7,33.4,N/A,Fog-Snow,Light Snow,110,2012-10-31 20:55:00
10:00 PM,30,30,100,,0,ESE,20.7,,,Snow,Light Snow,110,2012-10-31 21:00:00
10:55 PM,30.2,30.2,100,29.44,0.3,East,15.0,28.8,N/A,Fog-Snow,Snow,90,2012-10-31 21:55:00
11:55 PM,30.2,30.2,100,29.36,0.3,East,23.0,38.0,N/A,Fog-Snow,Snow,90,2012-10-31 22:55:00